createdAt,value
2022-09-15T00:00:42.290Z,83.68
2022-09-15T00:01:42.353Z,83.68
2022-09-15T00:02:42.287Z,83.89
2022-09-15T00:03:42.253Z,83.78
2022-09-15T00:04:42.246Z,83.78
2022-09-15T00:05:42.220Z,83.98
2022-09-15T00:06:42.221Z,83.78
2022-09-15T00:07:42.232Z,83.98
2022-09-15T00:08:42.191Z,83.98
2022-09-15T00:09:42.161Z,84.09
2022-09-15T00:10:42.161Z,83.98
2022-09-15T00:11:42.164Z,84.19
2022-09-15T00:12:42.140Z,84.29
2022-09-15T00:13:42.127Z,83.89
2022-09-15T00:14:42.105Z,83.89
2022-09-15T00:15:42.089Z,83.78
2022-09-15T00:16:42.164Z,83.78
2022-09-15T00:17:42.062Z,84.09
2022-09-15T00:18:42.053Z,84.19
2022-09-15T00:19:42.081Z,84.39
2022-09-15T00:20:42.030Z,84.29
2022-09-15T00:21:42.059Z,84.09
2022-09-15T00:22:42.000Z,83.98
2022-09-15T00:23:41.986Z,84.19
2022-09-15T00:24:41.970Z,84.29
2022-09-15T00:25:41.959Z,84.09
2022-09-15T00:26:41.960Z,84.29
2022-09-15T00:27:41.928Z,84.70
2022-09-15T00:28:41.932Z,84.39
2022-09-15T00:29:41.911Z,84.39
2022-09-15T00:30:41.941Z,84.39
2022-09-15T00:31:41.888Z,85.00
2022-09-15T00:32:41.869Z,84.84
2022-09-15T00:33:41.856Z,85.05
2022-09-15T00:34:41.847Z,84.64
2022-09-15T00:35:41.828Z,84.23
2022-09-15T00:36:41.829Z,84.33
2022-09-15T00:37:41.798Z,84.64
2022-09-15T00:38:41.796Z,84.23
2022-09-15T00:39:41.777Z,84.33
2022-09-15T00:40:41.781Z,84.74
2022-09-15T00:41:41.768Z,84.74
2022-09-15T00:42:41.749Z,84.64
2022-09-15T00:43:41.819Z,84.64
2022-09-15T00:44:41.717Z,85.25
2022-09-15T00:45:41.772Z,85.05
2022-09-15T00:46:41.697Z,84.94
2022-09-15T00:47:41.676Z,85.14
2022-09-15T00:48:41.671Z,85.05
2022-09-15T00:49:41.649Z,84.84
2022-09-15T00:50:41.636Z,84.94
2022-09-15T00:51:41.628Z,85.25
2022-09-15T00:52:41.616Z,85.05
2022-09-15T00:53:41.589Z,85.14
2022-09-15T00:54:41.608Z,85.25
2022-09-15T00:55:41.571Z,85.14
2022-09-15T00:56:41.575Z,85.25
2022-09-15T00:57:41.556Z,85.14
2022-09-15T00:58:41.535Z,84.74
2022-09-15T00:59:41.520Z,84.64
2022-09-15T01:00:41.506Z,84.74
2022-09-15T01:01:41.599Z,84.64
2022-09-15T01:02:41.563Z,84.74
2022-09-15T01:03:41.465Z,84.64
2022-09-15T01:04:41.456Z,84.94
2022-09-15T01:05:41.435Z,84.84
2022-09-15T01:06:41.425Z,84.64
2022-09-15T01:07:41.428Z,84.64
2022-09-15T01:08:41.462Z,84.67
2022-09-15T01:09:41.385Z,84.88
2022-09-15T01:10:41.385Z,84.98
2022-09-15T01:11:41.394Z,84.47
2022-09-15T01:12:41.365Z,84.67
2022-09-15T01:13:41.337Z,84.67
2022-09-15T01:14:41.325Z,84.67
2022-09-15T01:15:41.314Z,84.47
2022-09-15T01:16:41.346Z,84.17
2022-09-15T01:17:41.284Z,84.27
2022-09-15T01:18:41.276Z,84.67
2022-09-15T01:19:41.253Z,85.28
2022-09-15T01:20:41.255Z,84.98
2022-09-15T01:21:41.234Z,85.39
2022-09-15T01:22:41.234Z,85.39
2022-09-15T01:23:41.236Z,86.92
2022-09-15T01:24:41.204Z,86.41
2022-09-15T01:25:41.180Z,86.82
2022-09-15T01:26:41.167Z,86.41
2022-09-15T01:27:42.839Z,86.51
2022-09-15T01:28:43.425Z,86.61
2022-09-15T01:29:41.123Z,86.41
2022-09-15T01:30:41.136Z,86.30
2022-09-15T01:31:41.135Z,86.41
2022-09-15T01:32:41.102Z,86.21
2022-09-15T01:33:41.124Z,86.61
2022-09-15T01:34:41.122Z,86.51
2022-09-15T01:35:41.054Z,86.35
2022-09-15T01:36:41.043Z,86.35
2022-09-15T01:37:41.033Z,86.24
2022-09-15T01:38:41.060Z,85.84
2022-09-15T01:39:40.992Z,85.74
2022-09-15T01:40:41.023Z,86.55
2022-09-15T01:41:40.962Z,87.37
2022-09-15T01:42:40.972Z,87.37
2022-09-15T01:43:40.958Z,87.98
2022-09-15T01:44:40.933Z,87.77
2022-09-15T01:45:40.990Z,87.98
2022-09-15T01:46:40.913Z,87.88
2022-09-15T01:47:40.902Z,88.08
2022-09-15T01:48:40.895Z,87.88
2022-09-15T01:49:40.873Z,88.39
2022-09-15T01:50:40.863Z,88.69
2022-09-15T01:51:40.842Z,89.45
2022-09-15T01:52:40.843Z,88.90
2022-09-15T01:53:40.877Z,89.34
2022-09-15T01:54:40.810Z,89.25
2022-09-15T01:55:40.797Z,89.45
2022-09-15T01:56:40.781Z,89.55
2022-09-15T01:57:40.774Z,89.34
2022-09-15T01:58:40.759Z,89.45
2022-09-15T01:59:40.730Z,89.34
2022-09-15T02:00:40.730Z,89.14
2022-09-15T02:01:40.868Z,89.34
2022-09-15T02:02:40.710Z,89.86
2022-09-15T02:03:40.700Z,89.75
2022-09-15T02:04:40.684Z,89.65
2022-09-15T02:05:40.661Z,89.34
2022-09-15T02:06:40.681Z,89.25
2022-09-15T02:07:40.640Z,89.04
2022-09-15T02:08:40.627Z,89.25
2022-09-15T02:09:40.618Z,89.14
2022-09-15T02:10:40.609Z,89.34
2022-09-15T02:11:40.588Z,89.25
2022-09-15T02:12:40.579Z,89.34
2022-09-15T02:13:40.559Z,89.55
2022-09-15T02:14:40.549Z,89.14
2022-09-15T02:15:40.530Z,89.45
2022-09-15T02:16:40.598Z,89.55
2022-09-15T02:17:40.520Z,89.14
2022-09-15T02:18:40.500Z,89.25
2022-09-15T02:19:40.479Z,89.75
2022-09-15T02:20:40.468Z,89.55
2022-09-15T02:21:40.458Z,89.28
2022-09-15T02:22:40.450Z,88.78
2022-09-15T02:23:40.502Z,88.63
2022-09-15T02:24:40.421Z,88.57
2022-09-15T02:25:40.398Z,88.37
2022-09-15T02:26:40.385Z,88.06
2022-09-15T02:27:40.388Z,87.92
2022-09-15T02:28:40.365Z,88.88
2022-09-15T02:29:40.348Z,88.57
2022-09-15T02:30:40.338Z,88.88
2022-09-15T02:31:40.377Z,88.57
2022-09-15T02:32:40.319Z,88.47
2022-09-15T02:33:40.298Z,89.08
2022-09-15T02:34:40.287Z,88.98
2022-09-15T02:35:40.269Z,88.78
2022-09-15T02:36:40.257Z,88.78
2022-09-15T02:37:40.257Z,88.67
2022-09-15T02:38:40.229Z,89.28
2022-09-15T02:39:40.216Z,88.98
2022-09-15T02:40:40.207Z,88.78
2022-09-15T02:41:40.197Z,88.67
2022-09-15T02:42:40.196Z,88.57
2022-09-15T02:43:40.167Z,88.47
2022-09-15T02:44:40.156Z,88.37
2022-09-15T02:45:40.206Z,88.17
2022-09-15T02:46:40.127Z,88.26
2022-09-15T02:47:40.135Z,88.37
2022-09-15T02:48:40.109Z,88.37
2022-09-15T02:49:40.085Z,88.26
2022-09-15T02:50:40.076Z,88.67
2022-09-15T02:51:40.067Z,89.28
2022-09-15T02:52:40.055Z,88.88
2022-09-15T02:53:40.037Z,89.28
2022-09-15T02:54:40.028Z,90.10
2022-09-15T02:55:40.025Z,89.79
2022-09-15T02:56:39.996Z,89.59
2022-09-15T02:57:40.005Z,89.69
2022-09-15T02:58:39.969Z,89.59
2022-09-15T02:59:39.965Z,89.69
2022-09-15T03:00:40.002Z,89.69
2022-09-15T03:01:39.970Z,89.79
2022-09-15T03:02:39.935Z,89.69
2022-09-15T03:03:42.902Z,89.23
2022-09-15T03:04:39.896Z,89.08
2022-09-15T03:05:39.895Z,89.02
2022-09-15T03:06:39.864Z,89.02
2022-09-15T03:07:39.865Z,88.82
2022-09-15T03:08:39.844Z,88.61
2022-09-15T03:09:39.835Z,88.31
2022-09-15T03:10:39.814Z,88.41
2022-09-15T03:11:39.795Z,88.31
2022-09-15T03:12:39.804Z,88.00
2022-09-15T03:13:39.783Z,88.31
2022-09-15T03:14:39.773Z,88.31
2022-09-15T03:15:39.745Z,88.31
2022-09-15T03:16:39.770Z,88.51
2022-09-15T03:17:39.725Z,88.51
2022-09-15T03:18:39.703Z,88.71
2022-09-15T03:19:39.697Z,88.41
2022-09-15T03:20:39.684Z,88.20
2022-09-15T03:21:39.678Z,88.00
2022-09-15T03:22:39.767Z,88.00
2022-09-15T03:23:39.653Z,88.10
2022-09-15T03:24:39.633Z,88.10
2022-09-15T03:25:39.623Z,88.20
2022-09-15T03:26:39.613Z,88.31
2022-09-15T03:27:39.630Z,88.20
2022-09-15T03:28:39.584Z,88.41
2022-09-15T03:29:39.571Z,88.61
2022-09-15T03:30:39.553Z,88.31
2022-09-15T03:31:39.574Z,88.31
2022-09-15T03:32:39.596Z,88.20
2022-09-15T03:33:39.522Z,88.10
2022-09-15T03:34:39.511Z,87.90
2022-09-15T03:35:39.491Z,88.41
2022-09-15T03:36:39.471Z,89.02
2022-09-15T03:37:39.476Z,88.92
2022-09-15T03:38:39.441Z,88.82
2022-09-15T03:39:39.430Z,88.71
2022-09-15T03:40:39.421Z,88.41
2022-09-15T03:41:39.412Z,88.31
2022-09-15T03:42:39.452Z,88.20
2022-09-15T03:43:39.392Z,88.20
2022-09-15T03:44:39.366Z,88.20
2022-09-15T03:45:39.424Z,88.41
2022-09-15T03:46:39.340Z,88.71
2022-09-15T03:47:39.330Z,88.61
2022-09-15T03:48:39.320Z,88.41
2022-09-15T03:49:39.300Z,88.51
2022-09-15T03:50:39.290Z,88.65
2022-09-15T03:51:39.288Z,88.61
2022-09-15T03:52:39.341Z,88.96
2022-09-15T03:53:39.260Z,88.85
2022-09-15T03:54:39.241Z,88.65
2022-09-15T03:55:39.220Z,88.55
2022-09-15T03:56:39.228Z,88.76
2022-09-15T03:57:39.211Z,89.17
2022-09-15T03:58:39.187Z,89.06
2022-09-15T03:59:39.179Z,88.76
2022-09-15T04:00:39.229Z,88.76
2022-09-15T04:01:39.186Z,88.85
2022-09-15T04:02:39.180Z,89.17
2022-09-15T04:03:45.214Z,89.17
2022-09-15T04:04:40.101Z,88.85
2022-09-15T04:05:39.097Z,88.96
2022-09-15T04:06:39.079Z,89.17
2022-09-15T04:07:39.077Z,89.26
2022-09-15T04:08:39.049Z,89.67
2022-09-15T04:09:39.041Z,89.37
2022-09-15T04:10:39.018Z,89.26
2022-09-15T04:11:39.018Z,89.17
2022-09-15T04:12:39.021Z,89.67
2022-09-15T04:13:38.987Z,89.47
2022-09-15T04:14:38.980Z,89.37
2022-09-15T04:15:38.967Z,89.17
2022-09-15T04:16:39.015Z,89.17
2022-09-15T04:17:38.960Z,89.06
2022-09-15T04:18:38.919Z,88.85
2022-09-15T04:19:38.907Z,88.96
2022-09-15T04:20:38.898Z,88.85
2022-09-15T04:21:38.887Z,88.65
2022-09-15T04:22:38.887Z,88.76
2022-09-15T04:23:38.856Z,88.65
2022-09-15T04:24:38.836Z,88.65
2022-09-15T04:25:38.841Z,89.06
2022-09-15T04:26:38.817Z,88.96
2022-09-15T04:27:38.816Z,89.17
2022-09-15T04:28:38.788Z,88.85
2022-09-15T04:29:38.779Z,89.26
2022-09-15T04:30:38.766Z,89.58
2022-09-15T04:31:38.827Z,89.67
2022-09-15T04:32:38.746Z,90.59
2022-09-15T04:33:38.728Z,90.59
2022-09-15T04:34:41.387Z,90.59
2022-09-15T04:35:38.696Z,91.41
2022-09-15T04:36:38.677Z,91.00
2022-09-15T04:37:38.676Z,90.59
2022-09-15T04:38:38.687Z,90.39
2022-09-15T04:39:38.645Z,90.70
2022-09-15T04:40:38.626Z,91.52
2022-09-15T04:41:38.616Z,91.72
2022-09-15T04:42:38.608Z,91.31
2022-09-15T04:43:38.625Z,91.20
2022-09-15T04:44:38.586Z,91.00
2022-09-15T04:45:38.594Z,91.11
2022-09-15T04:46:38.577Z,90.59
2022-09-15T04:47:38.554Z,90.49
2022-09-15T04:48:38.525Z,90.39
2022-09-15T04:49:38.516Z,91.00
2022-09-15T04:50:38.505Z,91.20
2022-09-15T04:51:38.485Z,90.80
2022-09-15T04:52:38.534Z,90.49
2022-09-15T04:53:38.471Z,90.29
2022-09-15T04:54:38.444Z,91.11
2022-09-15T04:55:38.445Z,90.70
2022-09-15T04:56:38.435Z,90.29
2022-09-15T04:57:38.423Z,90.49
2022-09-15T04:58:38.393Z,90.08
2022-09-15T04:59:38.385Z,90.59
2022-09-15T05:00:38.433Z,91.11
2022-09-15T05:01:38.418Z,90.70
2022-09-15T05:02:38.355Z,90.39
2022-09-15T05:03:38.334Z,90.49
2022-09-15T05:04:38.372Z,90.39
2022-09-15T05:05:38.313Z,89.78
2022-09-15T05:06:38.295Z,89.98
2022-09-15T05:07:38.301Z,89.88
2022-09-15T05:08:38.263Z,89.73
2022-09-15T05:09:38.260Z,89.63
2022-09-15T05:10:38.287Z,90.25
2022-09-15T05:11:38.249Z,90.14
2022-09-15T05:12:38.233Z,89.84
2022-09-15T05:13:38.213Z,90.25
2022-09-15T05:14:38.183Z,90.25
2022-09-15T05:15:38.252Z,90.35
2022-09-15T05:16:38.233Z,90.66
2022-09-15T05:17:38.179Z,90.75
2022-09-15T05:18:38.167Z,90.55
2022-09-15T05:19:38.143Z,90.35
2022-09-15T05:20:38.129Z,90.14
2022-09-15T05:21:38.134Z,90.25
2022-09-15T05:22:41.684Z,91.06
2022-09-15T05:23:38.096Z,90.86
2022-09-15T05:24:38.071Z,90.86
2022-09-15T05:25:38.041Z,90.66
2022-09-15T05:26:38.062Z,90.71
2022-09-15T05:27:38.101Z,90.41
2022-09-15T05:28:38.010Z,90.10
2022-09-15T05:29:38.011Z,90.20
2022-09-15T05:30:41.428Z,90.31
2022-09-15T05:31:39.120Z,90.10
2022-09-15T05:32:37.981Z,90.71
2022-09-15T05:33:37.960Z,90.71
2022-09-15T05:34:37.931Z,90.51
2022-09-15T05:35:37.946Z,90.31
2022-09-15T05:36:37.891Z,90.31
2022-09-15T05:37:37.909Z,91.12
2022-09-15T05:38:37.870Z,91.12
2022-09-15T05:39:37.872Z,90.81
2022-09-15T05:40:37.858Z,90.51
2022-09-15T05:41:37.860Z,90.20
2022-09-15T05:42:37.839Z,89.69
2022-09-15T05:43:37.827Z,90.31
2022-09-15T05:44:37.790Z,89.90
2022-09-15T05:45:37.790Z,89.45
2022-09-15T05:46:37.801Z,89.14
2022-09-15T05:47:37.759Z,89.04
2022-09-15T05:48:37.739Z,90.06
2022-09-15T05:49:37.732Z,89.65
2022-09-15T05:50:37.720Z,89.55
2022-09-15T05:51:37.722Z,89.65
2022-09-15T05:52:37.700Z,89.45
2022-09-15T05:53:37.758Z,89.96
2022-09-15T05:54:37.660Z,90.16
2022-09-15T05:55:37.649Z,91.28
2022-09-15T05:56:37.648Z,90.67
2022-09-15T05:57:37.638Z,90.36
2022-09-15T05:58:37.654Z,90.06
2022-09-15T05:59:37.612Z,89.96
2022-09-15T06:00:37.618Z,89.55
2022-09-15T06:01:37.618Z,89.45
2022-09-15T06:02:37.582Z,89.20
2022-09-15T06:03:37.560Z,89.40
2022-09-15T06:04:37.558Z,89.51
2022-09-15T06:05:37.537Z,89.92
2022-09-15T06:06:37.558Z,90.01
2022-09-15T06:07:37.528Z,89.71
2022-09-15T06:08:37.535Z,90.01
2022-09-15T06:09:37.498Z,90.12
2022-09-15T06:10:37.484Z,89.71
2022-09-15T06:11:37.450Z,89.51
2022-09-15T06:12:37.446Z,89.30
2022-09-15T06:13:37.429Z,89.10
2022-09-15T06:14:37.406Z,89.00
2022-09-15T06:15:37.398Z,89.51
2022-09-15T06:16:37.446Z,89.71
2022-09-15T06:17:37.377Z,89.81
2022-09-15T06:18:37.377Z,89.67
2022-09-15T06:19:37.366Z,89.30
2022-09-15T06:20:37.344Z,88.90
2022-09-15T06:21:37.318Z,88.65
2022-09-15T06:22:37.317Z,88.65
2022-09-15T06:23:37.303Z,88.55
2022-09-15T06:24:37.288Z,88.65
2022-09-15T06:25:37.273Z,89.47
2022-09-15T06:26:37.255Z,89.57
2022-09-15T06:27:37.245Z,89.26
2022-09-15T06:28:37.227Z,89.87
2022-09-15T06:29:37.226Z,89.87
2022-09-15T06:30:37.196Z,90.59
2022-09-15T06:31:37.231Z,90.08
2022-09-15T06:32:37.177Z,90.34
2022-09-15T06:33:37.165Z,90.55
2022-09-15T06:34:37.146Z,90.44
2022-09-15T06:35:37.134Z,89.94
2022-09-15T06:36:37.165Z,89.94
2022-09-15T06:37:37.113Z,90.24
2022-09-15T06:38:37.095Z,89.83
2022-09-15T06:39:37.077Z,90.24
2022-09-15T06:40:37.065Z,90.24
2022-09-15T06:42:01.363Z,90.09
2022-09-15T06:42:38.046Z,89.69
2022-09-15T06:43:37.028Z,89.59
2022-09-15T06:44:37.022Z,89.48
2022-09-15T06:45:37.005Z,89.69
2022-09-15T06:46:37.058Z,89.38
2022-09-15T06:47:36.975Z,89.38
2022-09-15T06:48:36.980Z,89.14
2022-09-15T06:49:36.944Z,88.93
2022-09-15T06:50:36.936Z,89.24
2022-09-15T06:51:36.945Z,89.34
2022-09-15T06:52:36.925Z,89.24
2022-09-15T06:53:36.895Z,88.93
2022-09-15T06:54:36.894Z,88.83
2022-09-15T06:55:36.873Z,88.69
2022-09-15T06:56:38.261Z,89.09
2022-09-15T06:57:36.842Z,89.09
2022-09-15T06:58:36.835Z,88.89
2022-09-15T06:59:36.815Z,89.09
2022-09-15T07:00:36.804Z,88.79
2022-09-15T07:01:36.834Z,88.79
2022-09-15T07:02:36.882Z,88.89
2022-09-15T07:03:36.828Z,88.69
2022-09-15T07:04:36.764Z,88.48
2022-09-15T07:05:36.748Z,88.39
2022-09-15T07:06:36.734Z,88.08
2022-09-15T07:07:36.724Z,88.69
2022-09-15T07:08:36.726Z,88.69
2022-09-15T07:09:39.860Z,88.69
2022-09-15T07:10:37.644Z,88.48
2022-09-15T07:11:36.676Z,88.39
2022-09-15T07:12:36.654Z,88.59
2022-09-15T07:13:36.726Z,88.39
2022-09-15T07:14:36.708Z,88.59
2022-09-15T07:15:36.717Z,88.48
2022-09-15T07:16:36.642Z,88.48
2022-09-15T07:17:36.604Z,88.79
2022-09-15T07:18:40.947Z,88.69
2022-09-15T07:19:37.574Z,88.89
2022-09-15T07:20:36.560Z,88.65
2022-09-15T07:21:36.614Z,88.54
2022-09-15T07:22:36.711Z,88.54
2022-09-15T07:23:36.553Z,88.54
2022-09-15T07:24:36.513Z,88.34
2022-09-15T07:25:36.506Z,88.34
2022-09-15T07:26:36.521Z,88.13
2022-09-15T07:27:36.513Z,88.24
2022-09-15T07:28:36.443Z,88.04
2022-09-15T07:29:37.901Z,87.84
2022-09-15T07:30:36.423Z,87.79
2022-09-15T07:31:36.461Z,88.10
2022-09-15T07:32:36.434Z,87.89
2022-09-15T07:33:36.383Z,87.89
2022-09-15T07:34:36.435Z,87.59
2022-09-15T07:35:36.350Z,87.18
2022-09-15T07:36:36.342Z,87.38
2022-09-15T07:37:36.430Z,87.34
2022-09-15T07:38:36.347Z,87.55
2022-09-15T07:39:36.293Z,87.45
2022-09-15T07:40:36.344Z,87.45
2022-09-15T07:41:36.452Z,87.30
2022-09-15T07:42:36.343Z,86.90
2022-09-15T07:43:36.299Z,86.69
2022-09-15T07:44:36.251Z,86.69
2022-09-15T07:45:36.276Z,86.49
2022-09-15T07:46:36.229Z,86.49
2022-09-15T07:47:36.386Z,85.98
2022-09-15T07:48:36.199Z,86.08
2022-09-15T07:49:36.154Z,85.98
2022-09-15T07:50:36.211Z,85.88
2022-09-15T07:51:36.154Z,85.98
2022-09-15T07:52:36.292Z,85.88
2022-09-15T07:53:36.183Z,85.98
2022-09-15T07:54:36.145Z,85.88
2022-09-15T07:55:36.099Z,85.78
2022-09-15T07:56:36.098Z,85.58
2022-09-15T07:57:36.059Z,85.78
2022-09-15T07:58:36.045Z,85.78
2022-09-15T07:59:40.565Z,85.78
2022-09-15T08:00:37.079Z,85.88
2022-09-15T08:01:36.238Z,85.53
2022-09-15T08:02:36.012Z,85.64
2022-09-15T08:03:36.033Z,85.64
2022-09-15T08:04:35.974Z,85.64
2022-09-15T08:05:39.426Z,85.74
2022-09-15T08:06:37.583Z,85.64
2022-09-15T08:07:35.993Z,85.53
2022-09-15T08:08:35.917Z,85.44
2022-09-15T08:09:35.903Z,85.30
2022-09-15T08:10:35.907Z,85.19
2022-09-15T08:11:35.890Z,84.89
2022-09-15T08:12:35.865Z,84.89
2022-09-15T08:13:35.845Z,84.78
2022-09-15T08:14:35.863Z,84.75
2022-09-15T08:15:35.823Z,84.75
2022-09-15T08:16:35.917Z,84.55
2022-09-15T08:17:35.833Z,84.55
2022-09-15T08:18:35.793Z,84.55
2022-09-15T08:19:35.769Z,84.44
2022-09-15T08:20:35.774Z,84.20
2022-09-15T08:21:35.752Z,84.10
2022-09-15T08:22:35.735Z,84.10
2022-09-15T08:23:35.724Z,83.80
2022-09-15T08:24:35.707Z,83.59
2022-09-15T08:25:35.691Z,83.09
2022-09-15T08:26:35.694Z,82.78
2022-09-15T08:27:35.668Z,82.78
2022-09-15T08:28:35.654Z,82.98
2022-09-15T08:29:35.652Z,82.98
2022-09-15T08:30:35.632Z,82.78
2022-09-15T08:31:35.682Z,82.78
2022-09-15T08:32:35.603Z,82.64
2022-09-15T08:33:35.583Z,81.93
2022-09-15T08:34:35.572Z,82.03
2022-09-15T08:35:35.554Z,82.44
2022-09-15T08:36:35.575Z,82.34
2022-09-15T08:37:35.533Z,82.34
2022-09-15T08:38:35.523Z,82.24
2022-09-15T08:39:35.506Z,81.73
2022-09-15T08:40:35.508Z,81.52
2022-09-15T08:41:35.497Z,81.83
2022-09-15T08:42:35.470Z,81.52
2022-09-15T08:43:35.453Z,81.12
2022-09-15T08:44:35.435Z,81.63
2022-09-15T08:45:35.437Z,82.03
2022-09-15T08:46:35.480Z,80.47
2022-09-15T08:47:35.393Z,80.68
2022-09-15T08:48:35.383Z,80.88
2022-09-15T08:49:50.960Z,80.78
2022-09-15T08:50:36.377Z,80.68
2022-09-15T08:51:35.367Z,80.58
2022-09-15T08:52:35.352Z,80.38
2022-09-15T08:53:35.325Z,80.47
2022-09-15T08:54:35.318Z,80.07
2022-09-15T08:55:35.293Z,79.97
2022-09-15T08:56:35.293Z,79.87
2022-09-15T08:57:35.272Z,79.77
2022-09-15T08:58:35.271Z,80.27
2022-09-15T08:59:35.242Z,80.18
2022-09-15T09:00:35.233Z,79.87
2022-09-15T09:01:35.311Z,79.97
2022-09-15T09:02:35.234Z,79.77
2022-09-15T09:03:35.192Z,78.45
2022-09-15T09:04:35.192Z,79.16
2022-09-15T09:05:35.162Z,79.06
2022-09-15T09:06:35.162Z,77.64
2022-09-15T09:07:35.142Z,78.45
2022-09-15T09:08:35.170Z,78.66
2022-09-15T09:09:35.112Z,78.86
2022-09-15T09:10:35.103Z,78.96
2022-09-15T09:11:35.095Z,78.55
2022-09-15T09:12:35.082Z,77.75
2022-09-15T09:13:35.827Z,78.35
2022-09-15T09:14:35.051Z,78.75
2022-09-15T09:15:35.079Z,78.55
2022-09-15T09:16:35.032Z,78.66
2022-09-15T09:17:35.003Z,78.96
2022-09-15T09:18:35.000Z,79.13
2022-09-15T09:19:34.983Z,79.02
2022-09-15T09:20:34.969Z,77.10
2022-09-15T09:21:34.970Z,77.26
2022-09-15T09:22:34.944Z,77.47
2022-09-15T09:23:34.922Z,77.17
2022-09-15T09:24:34.917Z,76.46
2022-09-15T09:25:34.901Z,77.06
2022-09-15T09:26:34.903Z,76.82
2022-09-15T09:27:34.882Z,75.92
2022-09-15T09:28:34.863Z,76.52
2022-09-15T09:29:34.842Z,76.93
2022-09-15T09:30:34.938Z,75.41
2022-09-15T09:31:34.829Z,75.81
2022-09-15T09:32:34.803Z,75.01
2022-09-15T09:33:34.794Z,75.92
2022-09-15T09:34:34.792Z,75.68
2022-09-15T09:35:34.765Z,75.57
2022-09-15T09:36:34.770Z,75.68
2022-09-15T09:37:34.749Z,76.18
2022-09-15T09:38:34.751Z,75.64
2022-09-15T09:39:34.729Z,74.43
2022-09-15T09:40:34.748Z,73.49
2022-09-15T09:41:34.702Z,72.58
2022-09-15T09:42:34.684Z,71.37
2022-09-15T09:43:34.672Z,71.47
2022-09-15T09:44:34.660Z,71.97
2022-09-15T09:45:34.651Z,73.08
2022-09-15T09:46:34.853Z,73.58
2022-09-15T09:47:34.603Z,71.97
2022-09-15T09:48:34.604Z,70.15
2022-09-15T09:49:34.609Z,69.75
2022-09-15T09:50:34.583Z,69.95
2022-09-15T09:51:34.610Z,70.22
2022-09-15T09:52:34.572Z,70.89
2022-09-15T09:53:34.532Z,67.97
2022-09-15T09:54:34.523Z,69.75
2022-09-15T09:55:34.501Z,67.17
2022-09-15T09:56:34.512Z,67.14
2022-09-15T09:57:38.562Z,66.80
2022-09-15T09:58:35.473Z,64.19
2022-09-15T09:59:34.470Z,65.06
2022-09-15T10:00:34.462Z,64.33
2022-09-15T10:01:34.490Z,60.91
2022-09-15T10:02:34.412Z,63.73
2022-09-15T10:03:34.392Z,64.50
2022-09-15T10:04:34.453Z,64.14
2022-09-15T10:05:34.374Z,61.00
2022-09-15T10:06:34.375Z,59.16
2022-09-15T10:07:34.345Z,60.84
2022-09-15T10:08:34.342Z,58.00
2022-09-15T10:09:34.338Z,59.38
2022-09-15T10:10:34.313Z,60.98
2022-09-15T10:11:34.319Z,57.98
2022-09-15T10:12:34.293Z,58.68
2022-09-15T10:13:34.263Z,58.40
2022-09-15T10:14:34.255Z,58.91
2022-09-15T10:15:34.253Z,60.01
2022-09-15T10:16:34.348Z,56.60
2022-09-15T10:17:34.212Z,57.43
2022-09-15T10:18:34.215Z,58.96
2022-09-15T10:19:34.203Z,58.66
2022-09-15T10:20:34.173Z,58.36
2022-09-15T10:21:34.184Z,58.49
2022-09-15T10:22:34.163Z,57.48
2022-09-15T10:23:34.136Z,55.88
2022-09-15T10:24:34.135Z,55.71
2022-09-15T10:25:55.005Z,57.01
2022-09-15T10:26:35.113Z,57.64
2022-09-15T10:27:34.129Z,58.04
2022-09-15T10:28:34.083Z,59.27
2022-09-15T10:29:34.056Z,59.17
2022-09-15T10:30:34.116Z,59.88
2022-09-15T10:31:34.137Z,58.44
2022-09-15T10:32:34.029Z,57.61
2022-09-15T10:33:34.013Z,58.39
2022-09-15T10:34:34.003Z,57.03
2022-09-15T10:35:34.005Z,57.20
2022-09-15T10:36:33.974Z,54.80
2022-09-15T10:37:33.995Z,55.40
2022-09-15T10:38:33.968Z,53.77
2022-09-15T10:39:33.947Z,54.24
2022-09-15T10:40:33.933Z,54.94
2022-09-15T10:41:33.982Z,54.85
2022-09-15T10:42:33.887Z,55.32
2022-09-15T10:43:33.923Z,53.79
2022-09-15T10:44:33.864Z,54.19
2022-09-15T10:45:33.923Z,51.69
2022-09-15T10:46:37.586Z,51.52
2022-09-15T10:47:34.824Z,53.82
2022-09-15T10:48:33.815Z,50.26
2022-09-15T10:49:33.814Z,52.29
2022-09-15T10:50:33.800Z,53.92
2022-09-15T10:51:33.794Z,52.32
2022-09-15T10:52:33.765Z,53.34
2022-09-15T10:53:33.747Z,54.17
2022-09-15T10:54:33.734Z,54.38
2022-09-15T10:55:51.706Z,53.67
2022-09-15T10:56:34.714Z,53.67
2022-09-15T10:57:33.708Z,53.67
2022-09-15T10:58:33.693Z,53.80
2022-09-15T10:59:33.676Z,53.50
2022-09-15T11:00:33.721Z,54.30
2022-09-15T11:01:33.665Z,54.10
2022-09-15T11:02:33.702Z,54.33
2022-09-15T11:03:33.619Z,55.03
2022-09-15T11:04:33.606Z,55.83
2022-09-15T11:05:33.604Z,54.63
2022-09-15T11:06:33.584Z,55.46
2022-09-15T11:07:33.564Z,55.55
2022-09-15T11:08:33.548Z,54.55
2022-09-15T11:09:33.545Z,54.55
2022-09-15T11:10:33.525Z,54.45
2022-09-15T11:11:33.524Z,55.26
2022-09-15T11:12:33.495Z,56.29
2022-09-15T11:13:33.485Z,55.28
2022-09-15T11:14:33.478Z,55.48
2022-09-15T11:15:33.456Z,55.99
2022-09-15T11:16:33.514Z,56.79
2022-09-15T11:17:33.435Z,55.48
2022-09-15T11:18:33.421Z,55.79
2022-09-15T11:19:33.404Z,54.50
2022-09-15T11:20:33.398Z,54.91
2022-09-15T11:21:33.417Z,55.71
2022-09-15T11:22:33.375Z,56.31
2022-09-15T11:23:33.378Z,55.63
2022-09-15T11:24:33.367Z,55.23
2022-09-15T11:25:33.429Z,55.33
2022-09-15T11:26:33.313Z,56.14
2022-09-15T11:27:33.339Z,56.47
2022-09-15T11:28:33.292Z,56.16
2022-09-15T11:29:33.277Z,56.95
2022-09-15T11:30:33.800Z,56.14
2022-09-15T11:31:33.284Z,55.54
2022-09-15T11:32:33.246Z,56.74
2022-09-15T11:33:33.235Z,56.24
2022-09-15T11:34:33.206Z,56.95
2022-09-15T11:35:33.196Z,56.51
2022-09-15T11:36:33.185Z,55.81
2022-09-15T11:37:33.185Z,55.61
2022-09-15T11:38:33.157Z,56.41
2022-09-15T11:39:33.146Z,57.42
2022-09-15T11:40:33.163Z,57.79
2022-09-15T11:41:33.138Z,56.99
2022-09-15T11:42:33.114Z,57.57
2022-09-15T11:43:33.115Z,58.37
2022-09-15T11:44:33.077Z,54.65
2022-09-15T11:45:33.066Z,54.96
2022-09-15T11:46:33.118Z,55.96
2022-09-15T11:47:33.047Z,55.35
2022-09-15T11:48:33.032Z,56.38
2022-09-15T11:49:33.015Z,55.28
2022-09-15T11:50:32.998Z,55.79
2022-09-15T11:51:33.006Z,56.71
2022-09-15T11:52:32.991Z,55.41
2022-09-15T11:53:32.967Z,55.51
2022-09-15T11:54:32.956Z,55.21
2022-09-15T11:55:33.490Z,55.83
2022-09-15T11:56:32.918Z,55.33
2022-09-15T11:57:32.927Z,55.83
2022-09-15T11:58:32.911Z,55.06
2022-09-15T11:59:33.122Z,55.76
2022-09-15T12:00:32.866Z,55.96
2022-09-15T12:01:32.904Z,56.27
2022-09-15T12:02:33.542Z,56.67
2022-09-15T12:03:32.970Z,57.00
2022-09-15T12:04:32.841Z,57.70
2022-09-15T12:05:32.806Z,57.20
2022-09-15T12:06:32.806Z,57.40
2022-09-15T12:07:32.790Z,57.30
2022-09-15T12:08:32.765Z,57.30
2022-09-15T12:09:32.755Z,56.20
2022-09-15T12:10:32.735Z,57.10
2022-09-15T12:11:32.736Z,57.30
2022-09-15T12:12:32.707Z,58.11
2022-09-15T12:13:32.698Z,57.37
2022-09-15T12:14:32.687Z,57.57
2022-09-15T12:15:32.692Z,56.97
2022-09-15T12:16:32.667Z,57.07
2022-09-15T12:17:32.655Z,58.35
2022-09-15T12:18:39.843Z,58.95
2022-09-15T12:19:33.623Z,57.62
2022-09-15T12:20:32.607Z,57.52
2022-09-15T12:21:32.606Z,58.53
2022-09-15T12:22:32.577Z,56.38
2022-09-15T12:23:32.576Z,56.69
2022-09-15T12:24:32.568Z,55.79
2022-09-15T12:25:32.537Z,57.19
2022-09-15T12:26:32.536Z,57.06
2022-09-15T12:27:32.519Z,56.96
2022-09-15T12:28:32.508Z,54.25
2022-09-15T12:29:32.534Z,54.13
2022-09-15T12:30:32.476Z,54.72
2022-09-15T12:31:32.559Z,53.95
2022-09-15T12:32:32.446Z,54.25
2022-09-15T12:33:32.441Z,52.24
2022-09-15T12:34:32.417Z,53.55
2022-09-15T12:35:32.418Z,54.58
2022-09-15T12:36:32.437Z,55.79
2022-09-15T12:37:32.388Z,54.98
2022-09-15T12:38:32.367Z,53.77
2022-09-15T12:39:32.359Z,54.60
2022-09-15T12:40:32.382Z,53.60
2022-09-15T12:41:32.355Z,54.43
2022-09-15T12:42:32.326Z,54.93
2022-09-15T12:43:32.309Z,54.93
2022-09-15T12:44:32.298Z,54.86
2022-09-15T12:45:32.280Z,54.86
2022-09-15T12:46:32.323Z,55.59
2022-09-15T12:47:32.260Z,56.49
2022-09-15T12:48:32.252Z,56.09
2022-09-15T12:49:32.229Z,56.80
2022-09-15T12:50:32.209Z,56.90
2022-09-15T12:51:32.217Z,56.90
2022-09-15T12:52:32.188Z,57.30